Racket, Missouri
Current Conditions -  °F | °C
As of 5:15 PM on Wednesday 26 Nov 2014 (Local Time) from KGLY Reporting Station
Overcast Overcast  
Wind Chill: 29°   Ceiling: 2100
Heat Index: 37°   Visibility: 10mi
Dew Point: 32°   Wind: 15mph
Humidity: 81%   Direction: 310°NW
Pressure: 30.15"   Gusts: 26mph
Location:  38.3166°N, 93.2711°W
Report Text: KGLY 262315Z AUTO 31013G23KT 10SM OVC021 03/00 A3015 RMK AO2
Loading
Personal Weather Stations






























Interactive Weather Map New forecast layout! Learn more

10-Day Weather Forecast

Advertisements
Track Severe Weather on mobile